Terminal Aerodrome Forecast
Issued by NWS

Home | Current Version | Previous Version | Text Only | Print | Product List | Glossary On
Versions: 1 2 3 4 5 6 7 8 9 10 11 12 13 14 15 16 17
000
FTUS43 KFGF 252300
TAFBJI
TAF
KBJI 252339Z 2600/2624 VRB04KT P6SM BKN060
     FM260800 19008KT 5SM -SN OVC018
     FM261300 27012KT P6SM BKN015
     FM261600 30015G23KT P6SM OVC015=

USA.gov is the U.S. government's official web portal to all federal, state and local government web resources and services.